ENRA/MQN METAR and TAF weather

Enter ICAO airport designator
Station Type Date Time Source
ENRA METAR 2019/08/19 11:50 UTC NOAA

ENRA 191150Z 33007KT 9999 SCT040TCU SCT090 20/10 Q0996


Station Type Date Time Source
ENRA Decoded METAR 2019/08/19 11:50 UTC NOAA

Station name not available
Aug 19, 2019 - 07:50 AM EDT / 2019.08.19 1150 UTC
Wind: from the NNW (330 degrees) at 8 MPH (7 KT):0
Visibility: greater than 7 mile(s):0
Sky conditions: partly cloudy
Weather: Towering cumulus clouds observed
Temperature: 68 F (20 C)
Dew Point: 50 F (10 C)
Relative Humidity: 52%
Pressure (altimeter): 29.41 in. Hg (0996 hPa)
ob: ENRA 191150Z 33007KT 9999 SCT040TCU SCT090 20/10 Q0996
cycle: 12

Station Type Date Time Source
ENRA TAF UTC NOAA

Error!

Example: see airport list